createdAt,value
2022-10-13T00:00:18.461Z,99011.84
2022-10-13T00:02:21.451Z,99024.75
2022-10-13T00:04:24.396Z,99022.16
2022-10-13T00:06:27.261Z,99026.19
2022-10-13T00:08:30.410Z,99019.91
2022-10-13T00:10:36.918Z,99024.25
2022-10-13T00:12:39.983Z,99023.44
2022-10-13T00:14:43.072Z,99017.97
2022-10-13T00:16:45.778Z,99018.31
2022-10-13T00:18:49.273Z,99012.00
2022-10-13T00:20:51.984Z,99011.84
2022-10-13T00:22:54.655Z,99010.56
2022-10-13T00:24:57.397Z,99022.34
2022-10-13T00:27:00.098Z,99019.91
2022-10-13T00:29:02.852Z,99017.47
2022-10-13T00:31:23.216Z,99016.88
2022-10-13T00:33:25.934Z,99019.13
2022-10-13T00:35:28.663Z,99011.38
2022-10-13T00:37:31.371Z,99013.47
2022-10-13T00:39:34.292Z,99015.88
2022-10-13T00:41:36.969Z,99014.59
2022-10-13T00:43:58.338Z,99010.72
2022-10-13T00:46:01.049Z,99006.53
2022-10-13T00:48:03.910Z,99011.06
2022-10-13T00:50:14.928Z,99013.47
2022-10-13T00:52:20.437Z,99009.13
2022-10-13T00:54:25.312Z,99011.38
2022-10-13T00:56:29.450Z,99012.97
2022-10-13T00:58:33.121Z,99010.22
2022-10-13T01:00:36.180Z,98998.00
2022-10-13T01:02:39.135Z,99009.28
2022-10-13T01:04:45.844Z,99013.63
2022-10-13T01:06:49.595Z,99005.72
2022-10-13T01:08:52.199Z,99007.16
2022-10-13T01:11:32.229Z,99006.38
2022-10-13T01:13:42.003Z,99009.75
2022-10-13T01:15:59.531Z,99004.59
2022-10-13T01:18:11.187Z,99006.22
2022-10-13T01:20:37.325Z,99000.75
2022-10-13T01:23:01.020Z,98995.56
2022-10-13T01:25:29.925Z,98998.47
2022-10-13T01:27:44.442Z,99003.13
2022-10-13T01:30:05.210Z,98999.78
2022-10-13T01:32:26.267Z,99000.25
2022-10-13T01:34:48.400Z,99001.69
2022-10-13T01:37:09.638Z,99012.63
2022-10-13T01:39:32.542Z,99000.88
2022-10-13T01:41:40.639Z,99002.53
2022-10-13T01:44:03.007Z,99003.94
2022-10-13T01:46:30.266Z,98996.88
2022-10-13T01:48:36.071Z,99003.47
2022-10-13T01:50:39.861Z,98993.94
2022-10-13T01:52:43.546Z,98996.69
2022-10-13T01:54:54.005Z,98999.41
2022-10-13T01:56:57.479Z,98998.63
2022-10-13T01:59:06.953Z,98994.28
2022-10-13T02:01:28.573Z,98993.50
2022-10-13T02:03:39.056Z,98997.69
2022-10-13T02:05:49.272Z,98997.34
2022-10-13T02:08:22.727Z,98990.25
2022-10-13T02:10:50.111Z,98993.00
2022-10-13T02:13:01.333Z,98994.44
2022-10-13T02:15:07.556Z,98993.59
2022-10-13T02:17:13.753Z,98983.78
2022-10-13T02:19:18.618Z,98992.50
2022-10-13T02:21:21.524Z,98989.78
2022-10-13T02:23:24.775Z,98986.50
2022-10-13T02:25:28.768Z,98982.63
2022-10-13T02:27:31.898Z,98985.91
2022-10-13T02:29:34.778Z,98979.09
2022-10-13T02:31:38.214Z,98993.00
2022-10-13T02:33:40.889Z,98982.03
2022-10-13T02:35:44.362Z,98989.47
2022-10-13T02:37:47.479Z,98988.63
2022-10-13T02:39:50.138Z,98985.91
2022-10-13T02:41:53.070Z,98985.91
2022-10-13T02:43:55.812Z,98976.88
2022-10-13T02:45:58.558Z,98980.09
2022-10-13T02:48:01.235Z,98984.00
2022-10-13T02:50:04.991Z,98990.25
2022-10-13T02:52:07.693Z,98983.66
2022-10-13T02:54:10.483Z,98987.03
2022-10-13T02:56:13.570Z,98988.63
2022-10-13T02:58:16.294Z,98991.06
2022-10-13T03:00:20.107Z,98978.81
2022-10-13T03:02:23.491Z,98987.53
2022-10-13T03:04:26.304Z,98985.59
2022-10-13T03:06:29.026Z,98987.03
2022-10-13T03:08:35.164Z,98984.00
2022-10-13T03:10:38.054Z,98985.38
2022-10-13T03:12:40.757Z,98983.28
2022-10-13T03:14:43.871Z,98987.66
2022-10-13T03:16:46.492Z,98988.28
2022-10-13T03:18:49.249Z,98990.53
2022-10-13T03:21:06.820Z,98984.09
2022-10-13T03:23:09.602Z,98987.44
2022-10-13T03:25:12.338Z,98991.63
2022-10-13T03:27:15.879Z,98992.59
2022-10-13T03:29:18.961Z,98992.94
2022-10-13T03:31:21.781Z,98990.81
2022-10-13T03:33:24.454Z,98984.69
2022-10-13T03:35:27.652Z,98990.47
2022-10-13T03:37:30.928Z,98971.78
2022-10-13T03:39:33.608Z,98993.34
2022-10-13T03:41:36.306Z,98997.38
2022-10-13T03:43:39.933Z,98996.59
2022-10-13T03:45:42.542Z,98993.03
2022-10-13T03:47:45.360Z,98988.69
2022-10-13T03:49:48.024Z,99002.34
2022-10-13T03:51:50.693Z,98992.56
2022-10-13T03:53:54.115Z,98995.28
2022-10-13T03:55:57.154Z,98990.47
2022-10-13T03:57:59.984Z,98993.19
2022-10-13T04:00:04.111Z,98993.84
2022-10-13T04:02:07.865Z,98996.88
2022-10-13T04:04:12.587Z,98997.03
2022-10-13T04:06:15.341Z,98988.97
2022-10-13T04:08:18.225Z,98999.13
2022-10-13T04:10:21.153Z,98993.16
2022-10-13T04:12:24.051Z,98997.00
2022-10-13T04:14:27.196Z,98999.72
2022-10-13T04:16:31.671Z,98998.00
2022-10-13T04:18:34.695Z,98998.63
2022-10-13T04:20:39.705Z,98998.13
2022-10-13T04:22:42.781Z,98992.16
2022-10-13T04:24:45.503Z,98995.41
2022-10-13T04:26:48.269Z,98996.84
2022-10-13T04:28:52.274Z,98991.88
2022-10-13T04:30:55.030Z,98998.13
2022-10-13T04:32:57.753Z,98987.50
2022-10-13T04:35:00.986Z,99000.72
2022-10-13T04:37:03.650Z,98997.19
2022-10-13T04:39:06.301Z,98995.59
2022-10-13T04:41:10.042Z,98997.34
2022-10-13T04:43:12.679Z,99002.81
2022-10-13T04:45:15.355Z,99000.09
2022-10-13T04:47:18.014Z,99007.50
2022-10-13T04:49:20.763Z,99001.72
2022-10-13T04:51:25.315Z,99008.28
2022-10-13T04:53:38.326Z,99004.75
2022-10-13T04:55:41.051Z,99000.41
2022-10-13T04:57:43.766Z,98997.50
2022-10-13T04:59:46.843Z,99000.22
2022-10-13T05:01:49.581Z,99002.00
2022-10-13T05:03:56.854Z,99005.53
2022-10-13T05:05:59.582Z,99002.00
2022-10-13T05:08:02.270Z,99004.41
2022-10-13T05:10:05.555Z,99005.84
2022-10-13T05:12:08.230Z,98989.59
2022-10-13T05:14:10.914Z,99008.59
2022-10-13T05:16:15.366Z,99004.41
2022-10-13T05:18:18.530Z,99016.78
2022-10-13T05:20:21.307Z,99004.84
2022-10-13T05:22:23.940Z,99013.41
2022-10-13T05:24:36.686Z,99009.03
2022-10-13T05:26:40.297Z,99003.56
2022-10-13T05:28:44.215Z,99004.69
2022-10-13T05:30:47.109Z,99007.59
2022-10-13T05:32:53.714Z,99002.47
2022-10-13T05:34:56.637Z,99000.69
2022-10-13T05:37:00.411Z,99004.75
2022-10-13T05:39:05.879Z,99009.06
2022-10-13T05:41:14.027Z,99014.53
2022-10-13T05:43:16.719Z,99010.53
2022-10-13T05:45:21.807Z,99012.75
2022-10-13T05:47:28.364Z,99013.41
2022-10-13T05:49:31.141Z,99005.34
2022-10-13T05:51:40.027Z,99005.69
2022-10-13T05:53:51.037Z,99013.91
2022-10-13T05:55:58.568Z,99010.31
2022-10-13T05:58:01.907Z,99007.28
2022-10-13T06:00:09.350Z,99004.25
2022-10-13T06:02:16.187Z,99010.66
2022-10-13T06:04:25.387Z,99008.09
2022-10-13T06:06:31.504Z,99005.19
2022-10-13T06:08:34.527Z,99009.38
2022-10-13T06:10:38.296Z,99004.00
2022-10-13T06:12:41.452Z,99003.72
2022-10-13T06:14:44.139Z,99001.78
2022-10-13T06:16:46.859Z,98997.59
2022-10-13T06:18:49.521Z,99005.00
2022-10-13T06:20:52.230Z,99003.22
2022-10-13T06:22:57.823Z,99007.88
2022-10-13T06:25:00.527Z,99000.34
2022-10-13T06:27:03.193Z,99006.31
2022-10-13T06:29:06.050Z,99005.50
2022-10-13T06:31:08.743Z,99008.38
2022-10-13T06:33:11.378Z,99000.47
2022-10-13T06:35:14.747Z,99004.84
2022-10-13T06:37:17.520Z,99005.28
2022-10-13T06:39:20.206Z,99013.81
2022-10-13T06:41:22.874Z,99004.50
2022-10-13T06:43:31.734Z,99005.94
2022-10-13T06:45:38.661Z,99010.81
2022-10-13T06:47:41.474Z,99007.44
2022-10-13T06:49:44.122Z,99010.16
2022-10-13T06:51:46.709Z,99012.25
2022-10-13T06:53:49.350Z,99006.97
2022-10-13T06:55:52.690Z,99001.50
2022-10-13T06:57:55.490Z,99005.69
2022-10-13T06:59:58.078Z,99003.31
2022-10-13T07:02:00.826Z,98995.09
2022-10-13T07:04:03.438Z,99002.34
2022-10-13T07:06:06.953Z,99008.16
2022-10-13T07:08:09.612Z,99009.00
2022-10-13T07:10:12.349Z,99007.69
2022-10-13T07:12:15.077Z,99002.53
2022-10-13T07:14:17.698Z,99003.19
2022-10-13T07:16:20.259Z,99000.78
2022-10-13T07:18:22.829Z,99002.75
2022-10-13T07:20:26.012Z,98998.09
2022-10-13T07:22:28.677Z,99003.91
2022-10-13T07:24:31.394Z,99011.78
2022-10-13T07:26:34.385Z,98999.06
2022-10-13T07:28:37.687Z,99008.63
2022-10-13T07:30:40.630Z,99007.19
2022-10-13T07:32:43.319Z,99021.19
2022-10-13T07:34:45.953Z,99020.88
2022-10-13T07:36:48.621Z,99008.47
2022-10-13T07:38:51.281Z,99013.94
2022-10-13T07:40:53.844Z,99013.88
2022-10-13T07:42:57.834Z,99013.88
2022-10-13T07:45:00.492Z,99013.69
2022-10-13T07:47:06.217Z,99021.47
2022-10-13T07:49:11.177Z,99022.25
2022-10-13T07:51:16.362Z,99021.13
2022-10-13T07:53:19.186Z,99013.25
2022-10-13T07:55:21.786Z,99019.38
2022-10-13T07:57:27.238Z,99014.91
2022-10-13T07:59:32.119Z,99025.19
2022-10-13T08:01:34.777Z,99017.28
2022-10-13T08:03:37.918Z,99022.78
2022-10-13T08:05:40.700Z,99018.94
2022-10-13T08:07:43.260Z,99010.22
2022-10-13T08:09:45.940Z,99011.38
2022-10-13T08:11:49.107Z,99013.59
2022-10-13T08:13:52.942Z,99006.53
2022-10-13T08:15:55.562Z,99010.72
2022-10-13T08:17:58.231Z,99013.13
2022-10-13T08:20:00.916Z,99016.66
2022-10-13T08:22:07.702Z,99015.06
2022-10-13T08:24:14.871Z,99011.03
2022-10-13T08:26:24.501Z,99011.69
2022-10-13T08:28:29.191Z,99015.84
2022-10-13T08:30:32.537Z,99015.53
2022-10-13T08:32:35.373Z,99007.63
2022-10-13T08:34:38.331Z,99004.13
2022-10-13T08:36:41.452Z,99013.13
2022-10-13T08:38:45.126Z,99007.34
2022-10-13T08:40:49.633Z,99008.63
2022-10-13T08:42:55.563Z,99003.16
2022-10-13T08:45:28.820Z,99011.53
2022-10-13T08:47:28.061Z,99009.75
2022-10-13T08:49:31.541Z,99005.91
2022-10-13T08:51:34.825Z,99005.72
2022-10-13T08:53:41.582Z,99002.53
2022-10-13T08:55:55.469Z,99000.09
2022-10-13T08:57:59.121Z,99002.66
2022-10-13T09:00:03.420Z,99002.81
2022-10-13T09:02:22.453Z,99005.09
2022-10-13T09:04:41.802Z,99009.13
2022-10-13T09:06:57.047Z,99010.56
2022-10-13T09:09:08.900Z,99004.44
2022-10-13T09:11:12.287Z,99001.53
2022-10-13T09:13:15.466Z,99005.09
2022-10-13T09:15:18.773Z,98999.28
2022-10-13T09:17:29.540Z,99008.78
2022-10-13T09:19:36.565Z,99002.22
2022-10-13T09:21:39.839Z,99005.91
2022-10-13T09:23:42.651Z,98992.22
2022-10-13T09:25:49.451Z,98992.53
2022-10-13T09:27:58.125Z,98992.03
2022-10-13T09:30:35.349Z,98998.63
2022-10-13T09:32:38.383Z,98989.94
2022-10-13T09:34:41.694Z,98994.13
2022-10-13T09:37:03.616Z,98995.13
2022-10-13T09:39:17.351Z,98992.69
2022-10-13T09:41:22.106Z,98992.69
2022-10-13T09:43:36.502Z,98987.84
2022-10-13T09:45:43.456Z,98986.69
2022-10-13T09:48:02.626Z,98993.13
2022-10-13T09:50:19.242Z,98994.25
2022-10-13T09:52:22.720Z,98990.25
2022-10-13T09:54:34.397Z,98992.47
2022-10-13T09:56:46.661Z,98991.19
2022-10-13T09:59:22.000Z,98989.44
2022-10-13T10:01:28.688Z,98983.28
2022-10-13T10:03:35.701Z,98981.22
2022-10-13T10:05:49.887Z,98987.16
2022-10-13T10:07:53.716Z,98978.31
2022-10-13T10:10:16.390Z,98982.19
2022-10-13T10:12:27.559Z,98983.50
2022-10-13T10:14:36.450Z,98983.31
2022-10-13T10:16:46.847Z,98979.97
2022-10-13T10:18:58.918Z,98984.78
2022-10-13T10:21:07.949Z,98988.31
2022-10-13T10:23:37.174Z,98993.00
2022-10-13T10:25:59.458Z,98991.41
2022-10-13T10:28:32.862Z,98994.47
2022-10-13T10:30:43.789Z,98986.72
2022-10-13T10:33:04.580Z,98991.53
2022-10-13T10:35:19.341Z,98993.00
2022-10-13T10:37:51.330Z,98984.97
2022-10-13T10:40:31.416Z,98997.03
2022-10-13T10:42:58.984Z,98991.53
2022-10-13T10:45:04.702Z,98997.03
2022-10-13T10:47:21.040Z,98995.91
2022-10-13T10:49:31.502Z,98999.94
2022-10-13T10:51:38.186Z,98993.16
2022-10-13T10:54:09.685Z,99001.06
2022-10-13T10:56:32.333Z,98995.56
2022-10-13T10:58:37.681Z,99006.53
2022-10-13T11:00:55.882Z,99003.97
2022-10-13T11:03:04.109Z,98996.53
2022-10-13T11:05:06.897Z,98992.66
2022-10-13T11:07:24.839Z,98997.03
2022-10-13T11:09:59.915Z,99006.53
2022-10-13T11:12:02.582Z,98996.06
2022-10-13T11:14:05.119Z,99011.03
2022-10-13T11:16:32.406Z,99003.44
2022-10-13T11:19:06.087Z,99003.78
2022-10-13T11:21:09.383Z,99003.13
2022-10-13T11:23:14.893Z,99005.56
2022-10-13T11:25:42.141Z,99003.31
2022-10-13T11:27:45.285Z,99009.28
2022-10-13T11:29:49.128Z,98997.81
2022-10-13T11:31:55.287Z,99006.66
2022-10-13T11:34:00.916Z,98999.91
2022-10-13T11:36:40.087Z,99001.69
2022-10-13T11:38:43.726Z,98998.31
2022-10-13T11:41:08.929Z,99001.88
2022-10-13T11:43:30.142Z,99007.66
2022-10-13T11:45:47.010Z,99003.00
2022-10-13T11:48:03.907Z,99005.41
2022-10-13T11:50:39.973Z,99003.97
2022-10-13T11:52:56.612Z,99006.22
2022-10-13T11:55:11.687Z,98997.38
2022-10-13T11:57:24.818Z,98998.66
2022-10-13T11:59:33.958Z,98995.25
2022-10-13T12:01:36.587Z,98999.13
2022-10-13T12:03:44.223Z,99001.25
2022-10-13T12:05:49.334Z,99005.88
2022-10-13T12:07:54.913Z,99007.84
2022-10-13T12:09:58.578Z,99010.25
2022-10-13T12:12:13.970Z,99008.97
2022-10-13T12:14:24.321Z,99013.31
2022-10-13T12:16:28.869Z,99007.50
2022-10-13T12:18:38.379Z,99008.97
2022-10-13T12:20:41.131Z,99010.72
2022-10-13T12:22:54.530Z,99011.03
2022-10-13T12:25:06.557Z,99014.44
2022-10-13T12:27:22.184Z,99015.56
2022-10-13T12:29:27.927Z,99021.53
2022-10-13T12:31:40.862Z,99012.03
2022-10-13T12:33:43.651Z,99021.34
2022-10-13T12:35:46.474Z,99022.16
2022-10-13T12:37:49.594Z,99022.00
2022-10-13T12:39:52.611Z,99022.78
2022-10-13T12:41:56.490Z,99034.53
2022-10-13T12:44:02.409Z,99022.16
2022-10-13T12:46:09.634Z,99026.81
2022-10-13T12:48:36.286Z,99031.81
2022-10-13T12:50:39.281Z,99027.56
2022-10-13T12:52:42.032Z,99026.78
2022-10-13T12:55:18.246Z,99031.13
2022-10-13T12:57:27.277Z,99027.88
2022-10-13T12:59:31.158Z,99027.38
2022-10-13T13:01:35.427Z,99034.00
2022-10-13T13:03:39.287Z,99032.22
2022-10-13T13:05:51.843Z,99029.34
2022-10-13T13:07:55.523Z,99033.19
2022-10-13T13:10:19.570Z,99030.28
2022-10-13T13:12:26.578Z,99033.81
2022-10-13T13:14:39.381Z,99033.63
2022-10-13T13:16:42.090Z,99029.94
2022-10-13T13:18:46.281Z,99042.97
2022-10-13T13:20:49.367Z,99034.78
2022-10-13T13:22:52.152Z,99019.75
2022-10-13T13:24:54.919Z,99042.50
2022-10-13T13:26:57.701Z,99044.44
2022-10-13T13:29:00.551Z,99048.59
2022-10-13T13:31:03.681Z,99048.41
2022-10-13T13:33:06.518Z,99041.84
2022-10-13T13:35:10.203Z,99044.88
2022-10-13T13:37:17.733Z,99054.19
2022-10-13T13:39:20.778Z,99050.66
2022-10-13T13:41:27.785Z,99052.59
2022-10-13T13:43:30.433Z,99051.00
2022-10-13T13:45:34.108Z,99052.91
2022-10-13T13:47:37.159Z,99050.00
2022-10-13T13:49:40.213Z,99054.97
2022-10-13T13:51:43.026Z,99054.69
2022-10-13T13:53:46.129Z,99033.69
2022-10-13T13:55:49.118Z,99060.16
2022-10-13T13:57:52.158Z,99056.59
2022-10-13T13:59:54.925Z,99056.72
2022-10-13T14:01:57.626Z,99062.03
2022-10-13T14:04:00.383Z,99068.00
2022-10-13T14:06:03.140Z,99069.91
2022-10-13T14:08:06.025Z,99069.06
2022-10-13T14:10:10.112Z,99066.81
2022-10-13T14:12:13.382Z,99077.47
2022-10-13T14:14:16.369Z,99065.84
2022-10-13T14:16:19.029Z,99071.13
2022-10-13T14:18:21.630Z,99073.56
2022-10-13T14:20:24.477Z,99062.44
2022-10-13T14:22:27.328Z,99062.28
2022-10-13T14:24:30.274Z,99066.75
2022-10-13T14:26:34.063Z,99062.88
2022-10-13T14:28:36.878Z,99076.69
2022-10-13T14:30:40.555Z,99067.38
2022-10-13T14:32:43.425Z,99066.88
2022-10-13T14:34:46.250Z,99062.22
2022-10-13T14:36:48.969Z,99068.47
2022-10-13T14:38:52.089Z,99065.69
2022-10-13T14:40:59.955Z,99067.50
2022-10-13T14:43:02.594Z,99071.84
2022-10-13T14:45:06.844Z,99068.63
2022-10-13T14:47:09.659Z,99067.31
2022-10-13T14:49:12.502Z,99079.06
2022-10-13T14:51:15.496Z,99070.56
2022-10-13T14:53:18.159Z,99068.31
2022-10-13T14:55:20.761Z,99063.78
2022-10-13T14:57:23.709Z,99076.47
2022-10-13T14:59:26.752Z,99076.97
2022-10-13T15:01:30.565Z,99073.53
2022-10-13T15:03:33.284Z,99064.66
2022-10-13T15:05:35.988Z,99071.28
2022-10-13T15:07:41.096Z,99080.31
2022-10-13T15:09:53.201Z,99069.69
2022-10-13T15:12:06.889Z,99070.78
2022-10-13T15:14:09.964Z,99080.44
2022-10-13T15:16:19.230Z,99080.94
2022-10-13T15:18:25.768Z,99074.66
2022-10-13T15:20:31.104Z,99072.22
2022-10-13T15:22:33.733Z,99081.72
2022-10-13T15:24:36.294Z,99075.28
2022-10-13T15:26:38.907Z,99071.88
2022-10-13T15:28:47.345Z,99079.13
2022-10-13T15:30:50.642Z,99083.78
2022-10-13T15:32:53.323Z,99071.25
2022-10-13T15:34:56.565Z,99078.03
2022-10-13T15:36:59.269Z,99074.78
2022-10-13T15:39:01.895Z,99073.38
2022-10-13T15:41:06.235Z,99072.38
2022-10-13T15:43:09.263Z,99069.81
2022-10-13T15:45:12.140Z,99066.91
2022-10-13T15:47:17.184Z,99070.13
2022-10-13T15:49:20.231Z,99059.31
2022-10-13T15:51:24.490Z,99064.97
2022-10-13T15:53:27.159Z,99059.81
2022-10-13T15:55:30.006Z,99059.31
2022-10-13T15:57:32.741Z,99059.31
2022-10-13T15:59:35.398Z,99056.75
2022-10-13T16:01:38.088Z,99060.44
2022-10-13T16:03:41.146Z,99058.19
2022-10-13T16:05:45.591Z,99062.06
2022-10-13T16:07:48.863Z,99055.78
2022-10-13T16:09:51.521Z,99056.59
2022-10-13T16:11:54.862Z,99057.09
2022-10-13T16:13:57.424Z,99058.41
2022-10-13T16:16:01.407Z,99068.53
2022-10-13T16:18:04.468Z,99063.06
2022-10-13T16:20:08.158Z,99057.91
2022-10-13T16:22:10.916Z,99064.50
2022-10-13T16:24:13.450Z,99056.28
2022-10-13T16:26:19.991Z,99054.66
2022-10-13T16:28:23.252Z,99058.69
2022-10-13T16:30:25.903Z,99061.44
2022-10-13T16:32:28.470Z,99056.91
2022-10-13T16:34:31.214Z,99063.16
2022-10-13T16:36:34.146Z,99053.38
2022-10-13T16:38:37.053Z,99051.56
2022-10-13T16:40:40.228Z,99059.31
2022-10-13T16:42:43.453Z,99056.59
2022-10-13T16:44:46.034Z,99060.25
2022-10-13T16:46:50.422Z,99065.91
2022-10-13T16:48:53.042Z,99056.72
2022-10-13T16:50:55.677Z,99068.75
2022-10-13T16:52:59.819Z,99061.69
2022-10-13T16:55:03.198Z,99066.47
2022-10-13T16:57:06.660Z,99056.09
2022-10-13T16:59:10.658Z,99067.00
2022-10-13T17:01:13.580Z,99068.78
2022-10-13T17:03:16.414Z,99064.75
2022-10-13T17:05:19.103Z,99054.84
2022-10-13T17:07:21.875Z,99065.75
2022-10-13T17:09:24.650Z,99064.28
2022-10-13T17:11:30.480Z,99067.44
2022-10-13T17:13:36.153Z,99083.00
2022-10-13T17:15:39.216Z,99078.66
2022-10-13T17:17:42.361Z,99063.19
2022-10-13T17:19:45.571Z,99083.22
2022-10-13T17:21:48.783Z,99062.50
2022-10-13T17:23:51.792Z,99077.69
2022-10-13T17:25:55.383Z,99079.41
2022-10-13T17:27:58.309Z,99074.25
2022-10-13T17:30:01.293Z,99078.63
2022-10-13T17:32:06.418Z,99068.91
2022-10-13T17:34:09.594Z,99077.22
2022-10-13T17:36:21.297Z,99076.19
2022-10-13T17:38:24.242Z,99071.53
2022-10-13T17:40:27.374Z,99070.84
2022-10-13T17:42:30.089Z,99076.53
2022-10-13T17:44:32.971Z,99086.59
2022-10-13T17:46:38.690Z,99082.38
2022-10-13T17:48:43.065Z,99075.28
2022-10-13T17:50:46.075Z,99075.28
2022-10-13T17:52:48.866Z,99073.47
2022-10-13T17:54:51.503Z,99077.34
2022-10-13T17:56:57.105Z,99067.34
2022-10-13T17:59:02.030Z,99077.34
2022-10-13T18:01:13.526Z,99071.66
2022-10-13T18:03:16.499Z,99079.03
2022-10-13T18:05:19.333Z,99075.50
2022-10-13T18:07:22.481Z,99082.38
2022-10-13T18:09:25.658Z,99082.91
2022-10-13T18:11:28.386Z,99082.09
2022-10-13T18:13:31.083Z,99079.78
2022-10-13T18:15:38.356Z,99076.72
2022-10-13T18:17:41.000Z,99071.38
2022-10-13T18:19:43.957Z,99072.78
2022-10-13T18:21:46.586Z,99081.47
2022-10-13T18:23:50.113Z,99088.63
2022-10-13T18:25:52.769Z,99075.81
2022-10-13T18:27:55.562Z,99086.72
2022-10-13T18:29:59.521Z,99075.31
2022-10-13T18:32:02.459Z,99076.41
2022-10-13T18:34:07.758Z,99084.59
2022-10-13T18:36:25.616Z,99075.91
2022-10-13T18:38:28.548Z,99072.88
2022-10-13T18:40:31.181Z,99078.06
2022-10-13T18:42:33.794Z,99078.34
2022-10-13T18:44:36.423Z,99075.41
2022-10-13T18:46:39.873Z,99070.78
2022-10-13T18:48:42.577Z,99069.94
2022-10-13T18:50:45.271Z,99071.06
2022-10-13T18:52:48.030Z,99070.47
2022-10-13T18:54:51.208Z,99069.16
2022-10-13T18:56:54.066Z,99066.13
2022-10-13T18:58:59.830Z,99080.84
2022-10-13T19:01:05.257Z,99072.38
2022-10-13T19:03:08.432Z,99067.72
2022-10-13T19:05:11.369Z,99065.81
2022-10-13T19:07:13.956Z,99074.50
2022-10-13T19:09:17.569Z,99072.88
2022-10-13T19:11:21.602Z,99071.59
2022-10-13T19:13:26.265Z,99066.41
2022-10-13T19:15:28.816Z,99076.53
2022-10-13T19:17:31.456Z,99062.88
2022-10-13T19:19:34.323Z,99084.09
2022-10-13T19:21:38.382Z,99074.59
2022-10-13T19:23:41.422Z,99075.91
2022-10-13T19:25:44.385Z,99072.38
2022-10-13T19:27:47.113Z,99071.59
2022-10-13T19:29:52.477Z,99076.53
2022-10-13T19:31:55.049Z,99075.41
2022-10-13T19:33:58.637Z,99071.34
2022-10-13T19:36:01.231Z,99061.56
2022-10-13T19:38:03.894Z,99066.53
2022-10-13T19:40:08.661Z,99067.31
2022-10-13T19:42:11.372Z,99081.19
2022-10-13T19:44:15.840Z,99073.28
2022-10-13T19:46:18.657Z,99074.91
2022-10-13T19:48:21.326Z,99085.81
2022-10-13T19:50:24.373Z,99077.13
2022-10-13T19:52:27.182Z,99081.47
2022-10-13T19:54:33.765Z,99077.94
2022-10-13T19:56:36.789Z,99083.69
2022-10-13T19:58:39.465Z,99070.63
2022-10-13T20:00:46.392Z,99075.50
2022-10-13T20:02:49.229Z,99074.44
2022-10-13T20:04:52.206Z,99084.25
2022-10-13T20:06:55.067Z,99083.47
2022-10-13T20:08:59.131Z,99072.84
2022-10-13T20:11:09.935Z,99074.44
2022-10-13T20:13:12.610Z,99078.00
2022-10-13T20:15:15.493Z,99082.63
2022-10-13T20:17:18.411Z,99079.66
2022-10-13T20:19:21.225Z,99087.59
2022-10-13T20:21:24.968Z,99088.41
2022-10-13T20:23:27.677Z,99081.53
2022-10-13T20:25:30.599Z,99093.28
2022-10-13T20:27:33.497Z,99095.19
2022-10-13T20:29:36.192Z,99082.88
2022-10-13T20:31:38.819Z,99077.19
2022-10-13T20:33:42.368Z,99080.97
2022-10-13T20:35:45.399Z,99079.88
2022-10-13T20:37:47.994Z,99085.31
2022-10-13T20:39:51.116Z,99084.25
2022-10-13T20:41:53.823Z,99079.09
2022-10-13T20:43:59.018Z,99081.03
2022-10-13T20:46:03.861Z,99093.84
2022-10-13T20:48:06.604Z,99077.72
2022-10-13T20:50:09.309Z,99073.66
2022-10-13T20:52:11.987Z,99083.69
2022-10-13T20:54:15.655Z,99080.44
2022-10-13T20:56:22.124Z,99085.91
2022-10-13T20:58:29.637Z,99082.38
2022-10-13T21:00:32.265Z,99084.81
2022-10-13T21:02:34.939Z,99078.22
2022-10-13T21:04:37.590Z,99068.53
2022-10-13T21:06:41.872Z,99080.75
2022-10-13T21:08:46.043Z,99077.50
2022-10-13T21:10:50.047Z,99086.78
2022-10-13T21:12:53.322Z,99081.03
2022-10-13T21:14:56.065Z,99074.69
2022-10-13T21:16:58.919Z,99085.09
2022-10-13T21:19:02.181Z,99088.91
2022-10-13T21:21:07.298Z,99088.91
2022-10-13T21:23:11.782Z,99081.03
2022-10-13T21:25:14.741Z,99090.34
2022-10-13T21:27:17.530Z,99098.00
2022-10-13T21:29:20.225Z,99096.81
2022-10-13T21:31:24.322Z,99094.38
2022-10-13T21:33:26.961Z,99103.91
2022-10-13T21:35:29.588Z,99098.13
2022-10-13T21:37:39.127Z,99091.94
2022-10-13T21:39:41.762Z,99081.84
2022-10-13T21:41:44.483Z,99085.91
2022-10-13T21:43:47.581Z,99086.47
2022-10-13T21:45:50.226Z,99092.75
2022-10-13T21:47:52.932Z,99094.38
2022-10-13T21:49:55.572Z,99093.84
2022-10-13T21:51:58.274Z,99091.34
2022-10-13T21:54:06.501Z,99091.34
2022-10-13T21:56:11.936Z,99085.91
2022-10-13T21:58:14.563Z,99089.66
2022-10-13T22:00:17.337Z,99094.09
2022-10-13T22:02:20.088Z,99093.78
2022-10-13T22:04:22.722Z,99089.13
2022-10-13T22:06:26.162Z,99096.22
2022-10-13T22:08:38.197Z,99092.09
2022-10-13T22:10:41.781Z,99094.59
2022-10-13T22:12:44.845Z,99090.56
2022-10-13T22:14:47.512Z,99094.00
2022-10-13T22:16:51.850Z,99095.41
2022-10-13T22:18:57.263Z,99087.22
2022-10-13T22:21:04.691Z,99085.91
2022-10-13T22:23:07.397Z,99099.00
2022-10-13T22:25:10.137Z,99088.41
2022-10-13T22:27:13.784Z,99091.34
2022-10-13T22:29:19.738Z,99091.34
2022-10-13T22:31:22.487Z,99086.47
2022-10-13T22:33:25.076Z,99095.78
2022-10-13T22:35:27.787Z,99097.09
2022-10-13T22:37:31.063Z,99086.47
2022-10-13T22:39:33.893Z,99090.63
2022-10-13T22:41:36.540Z,99092.53
2022-10-13T22:43:39.422Z,99085.16
2022-10-13T22:45:52.533Z,99092.22
2022-10-13T22:47:55.150Z,99090.91
2022-10-13T22:49:57.695Z,99094.94
2022-10-13T22:52:00.686Z,99095.84
2022-10-13T22:54:04.147Z,99087.59
2022-10-13T22:56:09.166Z,99090.56
2022-10-13T22:58:11.942Z,99105.56
2022-10-13T23:00:15.127Z,99106.38
2022-10-13T23:02:17.709Z,99095.47
2022-10-13T23:04:20.501Z,99102.03
2022-10-13T23:06:28.483Z,99089.72
2022-10-13T23:08:31.693Z,99098.44
2022-10-13T23:10:34.465Z,99101.72
2022-10-13T23:12:37.151Z,99102.56
2022-10-13T23:14:39.956Z,99104.19
2022-10-13T23:16:43.121Z,99102.03
2022-10-13T23:18:45.958Z,99103.91
2022-10-13T23:20:51.052Z,99105.81
2022-10-13T23:22:55.886Z,99106.63
2022-10-13T23:24:58.627Z,99101.72
2022-10-13T23:27:01.489Z,99102.78
2022-10-13T23:29:05.411Z,99098.72
2022-10-13T23:31:17.937Z,99100.38
2022-10-13T23:33:20.575Z,99098.19
2022-10-13T23:35:23.513Z,99103.97
2022-10-13T23:37:26.146Z,99106.63
2022-10-13T23:39:29.779Z,99105.00
2022-10-13T23:41:33.014Z,99106.31
2022-10-13T23:43:36.127Z,99103.56
2022-10-13T23:45:38.766Z,99100.84
2022-10-13T23:47:41.430Z,99108.75
2022-10-13T23:49:43.976Z,99109.75
2022-10-13T23:51:46.559Z,99099.25
2022-10-13T23:53:50.082Z,99093.78
2022-10-13T23:55:52.791Z,99098.94
2022-10-13T23:57:55.953Z,99103.28
2022-10-13T23:59:58.742Z,99102.78
